This is the latest recevied weather packets stored in our database for station/object WD4HMR. If no packets are shown the sender has not sent any weather packets the latest 10 day(s).
| Time | Temp. | Humidity | Pressure | Rain* | Wind** | Luminosity | Snow |
|---|---|---|---|---|---|---|---|
| 1777380304 | 19.44° C | 93% | 1018.8 hPa | 0 mm | - | 141 W/m² | - |
| 1777378204 | 19.44° C | 92% | 1018 hPa | 0 mm | - | 43 W/m² | - |
| 1777377013 | 19.44° C | 92% | 1017.2 hPa | 0 mm | - | 20 W/m² | - |
| 1777375505 | 19.44° C | 92% | 1016.8 hPa | 0 mm | - | 9 W/m² | - |
| 1777374604 | 19.44° C | 91% | 1016.8 hPa | 0 mm | - | 2 W/m² | - |
| 1777374004 | 19.44° C | 92% | 1016.6 hPa | 0 mm | - | 0 W/m² | - |
| 1777372804 | 19.44° C | 92% | 1016.3 hPa | 0 mm | - | 0 W/m² | - |
| 1777372505 | 19.44° C | 92% | 1016.1 hPa | 0 mm | - | 0 W/m² | - |
| 1777372204 | 19.44° C | 92% | 1016.1 hPa | 0 mm | - | 0 W/m² | - |
| 1777371004 | 19.44° C | 92% | 1015.8 hPa | 0 mm | - | 0 W/m² | - |
| 1777370704 | 19.44° C | 92% | 1015.8 hPa | 0 mm | - | 0 W/m² | - |
| 1777370103 | 19.44° C | 90% | 1016.4 hPa | 0 mm | - | 0 W/m² | - |
| 1777369204 | 19.44° C | 89% | 1016.4 hPa | 0 mm | - | 0 W/m² | - |
| 1777368304 | 19.44° C | 89% | 1016.7 hPa | 0 mm | - | 0 W/m² | - |
| 1777366804 | 20.56° C | 88% | 1017.2 hPa | 0 mm | - | 0 W/m² | - |
| 1777366504 | 20.56° C | 87% | 1017.4 hPa | 0 mm | - | 0 W/m² | - |
| 1777365604 | 21.11° C | 82% | 1017.7 hPa | 0 mm | - | 0 W/m² | - |
| 1777365304 | 21.11° C | 81% | 1017.8 hPa | 0 mm | - | 0 W/m² | - |
| 1777365004 | 21.11° C | 80% | 1017.7 hPa | 0 mm | - | 0 W/m² | - |
| 1777364704 | 21.11° C | 80% | 1017.6 hPa | 0 mm | - | 0 W/m² | - |
| 1777364404 | 21.11° C | 80% | 1017.5 hPa | 0 mm | - | 0 W/m² | - |
| 1777362604 | 21.67° C | 78% | 1017.4 hPa | 0 mm | - | 0 W/m² | - |
| 1777362304 | 21.67° C | 78% | 1017.5 hPa | 0 mm | - | 0 W/m² | - |
| 1777362004 | 21.67° C | 77% | 1017.8 hPa | 0 mm | - | 0 W/m² | - |
| 1777361104 | 21.67° C | 76% | 1017.5 hPa | 0 mm | - | 0 W/m² | - |
* Rain latest hour (hover to see other rain measurements)
** Current wind speed in m/s (hover to see current wind gust speed)